Allen, Washington
Current Conditions -  °F | °C
As of 10:53 PM on Wednesday 22 Oct 2014 (Local Time) from KBLI Reporting Station
Overcast Overcast  
Wind Chill: 56°   Ceiling: 3300
Heat Index: 56°   Visibility: 10mi
Dew Point: 51°   Wind: 12mph
Humidity: 84%   Direction: 180°S
Pressure: 29.59"   Gusts: 23mph
Location:  48.5689°N, 122.407°W
Report Text: KBLI 230553Z 18010G20KT 10SM FEW017 BKN033 OVC060 13/11 A2959 RMK AO2 RAE18 SLP026 P0000 60017 T01330106 10144 20128 53041
Loading
Personal Weather Stations






























Interactive Weather Map
Tropical Storm Tracking
New forecast layout! Learn more

10-Day Weather Forecast

Advertisements
Track Severe Weather on mobile